Stations météo

réclame
Mon MeteoGroup
Molina De Aragon, Espagne (8232): Température de l'air & dewpoint: 18.01.2018 04:00:00 - 24.01.2018 04:00:00 (CET)Molina De Aragon, Espagne (8232): Vitesse du vent: 18.01.2018 04:00:00 - 24.01.2018 04:00:00 (CET)Molina De Aragon, Espagne (8232): Direction du vent: 18.01.2018 04:00:00 - 24.01.2018 04:00:00 (CET)Molina De Aragon, Espagne (8232): visibility: 18.01.2018 04:00:00 - 24.01.2018 04:00:00 (CET)Molina De Aragon, Espagne (8232): Quantités de précipitations: 18.01.2018 04:00:00 - 24.01.2018 04:00:00 (CET)
Date & Time tt [°C] td [°C] ff [km/h] ff [knt] dd vv [km] rr [mm]
24.01.2018 04:00:00 - - - - - - -
24.01.2018 03:00:00 -3,8 -4,8 2 1 E 20 0,0
24.01.2018 02:00:00 -3,1 -4,1 2 1 E 20 0,0
24.01.2018 01:00:00 -2,4 -3,5 2 1 E 20 -
24.01.2018 00:00:00 -1,8 -3,1 2 1 E 20 0,0
23.01.2018 23:00:00 -0,7 -2,3 2 1 ESE 20 0,0
23.01.2018 22:00:00 0,5 -1,1 2 1 E 20 -
23.01.2018 21:00:00 2,1 -0,3 2 1 ENE 20 0,0
23.01.2018 20:00:00 4,4 1,1 2 1 E 20 0,0
23.01.2018 19:00:00 7,9 2,6 4 2 ENE 20 -
23.01.2018 18:00:00 12,1 3,8 2 1 NE 20 0,0
23.01.2018 17:00:00 13,6 4,7 4 2 ENE 20 0,0
23.01.2018 16:00:00 14,3 4,6 5 3 NE 20 -
23.01.2018 15:00:00 14,4 6,5 5 3 N 20 0,0
23.01.2018 14:00:00 12,1 6,6 2 1 W 20 0,0
23.01.2018 13:00:00 9,5 5,7 4 2 SE 20 -
23.01.2018 12:00:00 7,1 5,2 2 1 ESE 20 0,0
23.01.2018 11:00:00 4,1 2,6 2 1 NW 20 0,0
23.01.2018 10:00:00 2,2 1,2 2 1 WSW 20 -
23.01.2018 09:00:00 0,6 -0,1 0 0 N 20 0,0
23.01.2018 08:00:00 -0,3 -0,9 2 1 SSE 20 0,0
23.01.2018 07:00:00 -1,3 -1,9 2 1 SW 20 -
23.01.2018 06:00:00 -1,3 -2,3 2 1 E 20 0,0
23.01.2018 05:00:00 -0,4 -1,2 2 1 E 20 0,0
23.01.2018 04:00:00 -0,1 -1,0 2 1 S 20 -
23.01.2018 03:00:00 -0,1 -0,8 2 1 S 20 0,0
23.01.2018 02:00:00 -1,0 -1,8 2 1 NNE 20 0,0
23.01.2018 01:00:00 -1,2 -2,2 4 2 E 20 -
23.01.2018 00:00:00 -0,4 -1,5 2 1 ENE 20 0,0
22.01.2018 23:00:00 0,3 -1,1 2 1 NE 20 0,0
22.01.2018 22:00:00 1,9 0,1 2 1 ESE 20 -
22.01.2018 21:00:00 3,5 1,0 4 2 E 20 0,0
22.01.2018 20:00:00 5,7 2,3 2 1 SW 20 0,0
22.01.2018 19:00:00 7,9 3,4 8 4 N 20 -
22.01.2018 18:00:00 12,2 3,7 13 7 NNE 20 0,0
22.01.2018 17:00:00 16,1 4,5 8 4 NNE 20 0,0
22.01.2018 16:00:00 15,7 3,5 5 3 E 20 -
22.01.2018 15:00:00 15,1 3,2 4 2 WSW 20 0,0
22.01.2018 14:00:00 13,5 4,1 2 1 S 20 0,0
22.01.2018 13:00:00 9,7 4,9 2 1 WNW 20 -
22.01.2018 12:00:00 4,7 4,0 4 2 E 20 0,0
22.01.2018 11:00:00 3,2 3,1 4 2 W 4,7 0,0
22.01.2018 10:00:00 2,3 2,2 2 1 N 0,2 -
22.01.2018 09:00:00 2,3 1,9 4 2 SE 0,2 0,0
22.01.2018 08:00:00 3,3 2,7 4 2 SSE 2,4 0,0
22.01.2018 07:00:00 4,1 3,5 2 1 SE 8 -
22.01.2018 06:00:00 4,3 3,6 4 2 WSW 19 0,0
22.01.2018 05:00:00 4,4 3,5 4 2 W 20 0,0
22.01.2018 04:00:00 5,0 3,8 5 3 NW 20 -
22.01.2018 03:00:00 5,4 4,4 5 3 WNW 20 0,0
22.01.2018 02:00:00 5,5 4,5 4 2 W 20 0,0
22.01.2018 01:00:00 4,8 3,8 2 1 SSW 20 -
22.01.2018 00:00:00 4,2 3,0 2 1 E 20 0,0
21.01.2018 23:00:00 3,8 2,3 2 1 ESE 20 0,0
21.01.2018 22:00:00 4,2 2,7 2 1 S 20 -
21.01.2018 21:00:00 5,7 3,7 4 2 WNW 20 0,0
21.01.2018 20:00:00 7,0 4,3 4 2 WSW 20 0,0
21.01.2018 19:00:00 8,7 4,9 5 3 W 20 -
21.01.2018 18:00:00 11,6 5,9 11 6 WNW 20 0,0
21.01.2018 17:00:00 13,8 6,2 9 5 WNW 20 0,0
21.01.2018 16:00:00 14,3 6,1 8 4 NW 20 -
21.01.2018 15:00:00 15,2 6,7 9 5 NW 20 0,0
21.01.2018 14:00:00 14,8 6,4 13 7 NW 20 0,0
21.01.2018 13:00:00 12,8 6,6 11 6 W 20 -
21.01.2018 12:00:00 11,6 6,5 11 6 W 20 0,0
21.01.2018 11:00:00 8,6 5,5 5 3 W 20 0,0
21.01.2018 10:00:00 6,6 5,1 4 2 W 20 -
21.01.2018 09:00:00 5,9 4,1 4 2 WSW 20 0,0
21.01.2018 08:00:00 6,6 4,6 15 8 WNW 20 0,0
21.01.2018 07:00:00 7,1 4,7 9 5 W 20 -
21.01.2018 06:00:00 7,1 4,7 13 7 W 20 0,0
21.01.2018 05:00:00 6,6 4,1 11 6 WSW 20 0,0
21.01.2018 04:00:00 6,5 3,5 9 5 WSW 20 -
21.01.2018 03:00:00 6,6 3,6 11 6 W 20 0,0
21.01.2018 02:00:00 5,5 2,7 5 3 W 20 0,0
21.01.2018 01:00:00 5,6 2,1 9 5 W 20 -
21.01.2018 00:00:00 5,3 1,2 5 3 WNW 20 0,0
20.01.2018 23:00:00 6,4 1,5 9 5 W 20 0,0
20.01.2018 22:00:00 6,6 1,3 9 5 W 20 -
20.01.2018 21:00:00 7,3 1,6 9 5 W 20 0,0
20.01.2018 20:00:00 6,5 -0,9 9 5 W 19 0,0
20.01.2018 19:00:00 7,6 -0,9 11 6 W 14 -
20.01.2018 18:00:00 9,8 -0,4 8 4 WSW 20 0,0
20.01.2018 17:00:00 11,5 -0,7 11 6 W 20 0,0
20.01.2018 16:00:00 11,3 -0,2 15 8 W 20 -
20.01.2018 15:00:00 11,7 -0,5 16 9 W 20 0,0
20.01.2018 14:00:00 11,0 -1,4 16 9 WSW 20 0,0
20.01.2018 13:00:00 10,6 -0,9 13 7 W 19 -
20.01.2018 12:00:00 8,3 1,0 11 6 W 20 0,0
20.01.2018 11:00:00 2,7 1,5 4 2 SE 20 0,0
20.01.2018 10:00:00 -2,2 -2,6 2 1 NNE 20 -
20.01.2018 09:00:00 -4,0 -4,8 0 0 N 20 0,0
20.01.2018 08:00:00 -4,2 -5,0 0 0 N 19 0,0
20.01.2018 07:00:00 -4,1 -5,1 2 1 E 20 -
20.01.2018 06:00:00 -3,8 -4,6 2 1 ENE 20 0,0
20.01.2018 05:00:00 -3,3 -4,3 2 1 E 20 0,0
20.01.2018 04:00:00 -2,4 -3,5 2 1 ENE 20 -
20.01.2018 03:00:00 -1,3 -2,6 2 1 SE 20 0,0
20.01.2018 02:00:00 0,0 -1,3 2 1 SE 20 0,0
20.01.2018 01:00:00 0,0 -1,3 4 2 SE 20 -
20.01.2018 00:00:00 0,5 -1,1 2 1 E 20 0,0
19.01.2018 23:00:00 1,9 -0,2 0 0 N 20 0,0
19.01.2018 22:00:00 3,7 1,2 4 2 N 20 -
19.01.2018 21:00:00 6,3 2,7 4 2 NNE 20 0,0
19.01.2018 20:00:00 7,3 1,6 5 3 W 20 0,0
19.01.2018 19:00:00 7,7 1,5 8 4 NNW 20 -
19.01.2018 18:00:00 9,5 1,6 8 4 NNW 20 0,0
19.01.2018 17:00:00 11,3 1,2 9 5 NNW 20 0,0
19.01.2018 16:00:00 11,7 0,1 11 6 NNW 20 -
19.01.2018 15:00:00 11,5 0,6 11 6 NNW 20 0,0
19.01.2018 14:00:00 11,7 2,2 16 9 N 20 0,0
19.01.2018 13:00:00 8,4 2,4 5 3 SW 20 -
19.01.2018 12:00:00 4,0 0,7 4 2 SSW 20 0,0
19.01.2018 11:00:00 -1,0 -2,1 2 1 SE 20 0,0
19.01.2018 10:00:00 -3,9 -4,6 2 1 SE 20 -
19.01.2018 09:00:00 -5,0 -6,1 2 1 ENE 20 0,0
19.01.2018 08:00:00 -4,8 -5,8 2 1 NE 19 0,0
19.01.2018 07:00:00 -4,5 -5,5 2 1 ENE 20 -
19.01.2018 06:00:00 -4,2 -5,2 2 1 ESE 20 0,0
19.01.2018 05:00:00 -4,1 -5,1 4 2 S 20 0,0
19.01.2018 04:00:00 -4,0 -5,1 2 1 SE 20 -
19.01.2018 03:00:00 -3,6 -4,7 4 2 E 20 0,0
19.01.2018 02:00:00 -3,3 -4,7 2 1 E 20 0,0
19.01.2018 01:00:00 -2,9 -4,5 2 1 E 20 -
19.01.2018 00:00:00 -2,2 -3,9 2 1 E 20 0,0
18.01.2018 23:00:00 -1,3 -3,7 2 1 E 20 0,0
18.01.2018 22:00:00 0,1 -3,1 2 1 E 20 -
18.01.2018 21:00:00 1,9 -2,2 4 2 E 20 0,0
18.01.2018 20:00:00 3,9 -1,9 2 1 SE 20 0,0
18.01.2018 19:00:00 6,7 -1,7 2 1 NE 20 -
18.01.2018 18:00:00 11,5 0,0 9 5 NNE 20 0,0
18.01.2018 17:00:00 14,7 1,2 8 4 NNE 20 0,0
18.01.2018 16:00:00 14,5 -1,6 5 3 NE 20 -
18.01.2018 15:00:00 14,1 -2,0 4 2 SSW 20 0,0
18.01.2018 14:00:00 12,4 -2,7 2 1 NE 20 0,0
18.01.2018 13:00:00 8,8 -0,5 4 2 S 20 -
18.01.2018 12:00:00 4,4 -1,0 2 1 SW 20 0,0
18.01.2018 11:00:00 0,0 -1,8 2 1 S 20 0,0
18.01.2018 10:00:00 -3,9 -4,4 2 1 S 20 -
18.01.2018 09:00:00 -5,5 -6,5 2 1 E 19 0,0
18.01.2018 08:00:00 -5,5 -6,5 2 1 ESE 18 0,0
18.01.2018 07:00:00 -5,0 -5,8 2 1 SE 20 -
18.01.2018 06:00:00 -4,8 -5,6 2 1 ENE 20 0,0
18.01.2018 05:00:00 -4,5 -5,5 2 1 ESE 20 0,0
18.01.2018 04:00:00 -4,0 -4,8 2 1 E 20 -

tt = Température de l'air
td = dewpoint
ff = Vitesse du vent
dd = Direction du vent
vv = visibility
rr = Quantités de précipitations

stations d'obs. à proximité